Cape Girardeau Regional Airport
KCGI : rendu visible

Aérodrome :











RETROUVEZ-NOUS SUR...

 
LOGIN :

S'inscrire | Disclaimer

   EN    FR    IT 

 









Légende :    VFR   VFR Marginal   IFR   IFR Intensif   IFR Très Intensif
Visi : 
Plafond : 
>= 8 km
>= 3000ft
5 à 8 km
1000 à 3000 ft
1500m à 5 km
500 à 1000 ft
800 à 1500m
200 à 500 ft
< 800m
< 200 ft
Symboles :   Orages  Brouillard  Fortes neiges  Fortes précipitations  Vent > 20 kt






- Altitude de l'aérodrome : 342 ft
- Code IATA : CGI


KCGI - Cape Girardeau Regional

DERNIER METAR :
  • 231253Z 00000KT 10SM CLR 05/03 A3011 RMK AO2 SLP197 T00500028

METARs EXPIRÉS :
  • 231153Z 10004KT 10SM CLR 04/02 A3009 RMK AO2 SLP191 T00440022 10067 20033 51009
  • 231053Z AUTO 11004KT 10SM CLR 04/02 A3009 RMK AO2 SLP191 T00390022

TAF KCGI
Valide du 23 à 12h jusqu'au 24 à 12h UTC


231124Z 2312/2412 VRB03KT P6SM SKC
FM231700 21015G23KT P6SM SKC
FM232300 19012KT P6SM SKC
FM240300 19006KT P6SM FEW090 FEW250
FM240900 00000KT P6SM SCT090 BKN120



MET'MAP, la Météo Aéronautique d'un coup d'oeil ! - Copyright ORBIFLY Décembre 2007 - Disclaimer

ORBIFLY MET'MAP TEAM :

Programmation & Développement : Alexandra Zaïnal
Conception & Développement : Baudouin d'Aumeries
Co-Programmation & Développement : Marc-Olivier Méhu
Soutien technique & logistique : Manuel Goepfert

Contact : metmap@orbifly.com




SOURCES & CREDITS :

   NOAA       Earth
Advisory